WJA2788 CYQT-MMUN
Flight info
| Callsign | WJA2788 |
|---|---|
| Flight time | 3h 58m |
| Altitude | 35000 |
| Route | YQT DCT IYGUR DCT EDENS DCT GAGLE DCT HRV DCT LEV L214 IRDOV UL214 NUDIS UT38 LEVAT UM782 VOMAR VOMAR1A |
| Aircraft | B38M/M-SDE1FGHILORVWXY/HB1 |
Departure
| Time | 2026-04-29 15:40 |
|---|---|
| Airport | Thunder Bay International Airport (CYQT) |
Arrival
| Time | 2026-04-29 19:39 |
|---|---|
| Airport | Cancún International Airport (MMUN) |
| Time | Latitude | Longitude | Altitude | Speed | Heading |
|---|---|---|---|---|---|
| 2026-04-29 15:16 | 48.37187 | -89.31334 | 655 ft | 0 kts | 117° |
| 2026-04-29 15:33 | 48.37188 | -89.31337 | 655 ft | 4 kts | 117° |
| 2026-04-29 15:33 | 48.37209 | -89.31403 | 658 ft | 0 kts | 92° |
| 2026-04-29 15:34 | 48.37201 | -89.31426 | 661 ft | 0 kts | 24° |
| 2026-04-29 15:34 | 48.37205 | -89.31423 | 660 ft | 0 kts | 24° |
| 2026-04-29 15:35 | 48.37211 | -89.31419 | 658 ft | 2 kts | 24° |
| 2026-04-29 15:35 | 48.37241 | -89.31400 | 657 ft | 8 kts | 24° |
| 2026-04-29 15:35 | 48.37301 | -89.31349 | 655 ft | 1 kts | 351° |
| 2026-04-29 15:36 | 48.37312 | -89.31387 | 657 ft | 7 kts | 264° |
| 2026-04-29 15:36 | 48.37286 | -89.31491 | 657 ft | 14 kts | 249° |
| 2026-04-29 15:36 | 48.37248 | -89.31666 | 656 ft | 18 kts | 251° |
| 2026-04-29 15:36 | 48.37204 | -89.31852 | 657 ft | 20 kts | 251° |
| 2026-04-29 15:37 | 48.37156 | -89.32054 | 658 ft | 21 kts | 250° |
| 2026-04-29 15:37 | 48.37108 | -89.32259 | 659 ft | 21 kts | 250° |
| 2026-04-29 15:37 | 48.37059 | -89.32466 | 660 ft | 21 kts | 250° |
| 2026-04-29 15:37 | 48.37019 | -89.32660 | 659 ft | 18 kts | 276° |
| 2026-04-29 15:38 | 48.37071 | -89.32821 | 661 ft | 17 kts | 301° |
| 2026-04-29 15:38 | 48.37099 | -89.32990 | 661 ft | 17 kts | 263° |
| 2026-04-29 15:38 | 48.37061 | -89.33145 | 664 ft | 15 kts | 242° |
| 2026-04-29 15:38 | 48.37056 | -89.33282 | 666 ft | 2 kts | 242° |
| 2026-04-29 15:39 | 48.37042 | -89.33287 | 666 ft | 3 kts | 163° |
| 2026-04-29 15:39 | 48.37039 | -89.33267 | 666 ft | 2 kts | 64° |
| 2026-04-29 15:39 | 48.37050 | -89.33230 | 666 ft | 0 kts | 69° |
| 2026-04-29 15:39 | 48.37052 | -89.33222 | 665 ft | 6 kts | 67° |
| 2026-04-29 15:40 | 48.37164 | -89.32762 | 662 ft | 86 kts | 70° |
| 2026-04-29 15:40 | 48.37440 | -89.31578 | 655 ft | 152 kts | 71° |
| 2026-04-29 15:40 | 48.37794 | -89.29948 | 1120 ft | 169 kts | 73° |
| 2026-04-29 15:40 | 48.38170 | -89.28236 | 1994 ft | 176 kts | 70° |
| 2026-04-29 15:41 | 48.38591 | -89.26473 | 2820 ft | 182 kts | 69° |
| 2026-04-29 15:41 | 48.39029 | -89.24643 | 3567 ft | 190 kts | 69° |
| 2026-04-29 15:41 | 48.39498 | -89.22679 | 3981 ft | 212 kts | 69° |
| 2026-04-29 15:41 | 48.40017 | -89.20502 | 3945 ft | 229 kts | 69° |
| 2026-04-29 15:42 | 48.40575 | -89.18163 | 3927 ft | 244 kts | 69° |
| 2026-04-29 15:42 | 48.41146 | -89.15774 | 3969 ft | 249 kts | 69° |
| 2026-04-29 15:42 | 48.41400 | -89.13208 | 3950 ft | 250 kts | 99° |
| 2026-04-29 15:42 | 48.40645 | -89.10884 | 4193 ft | 255 kts | 134° |
| 2026-04-29 15:43 | 48.39176 | -89.09362 | 4705 ft | 261 kts | 160° |
| 2026-04-29 15:43 | 48.37391 | -89.08980 | 5239 ft | 262 kts | 190° |
| 2026-04-29 15:43 | 48.35728 | -89.09985 | 5776 ft | 259 kts | 221° |
| 2026-04-29 15:43 | 48.34614 | -89.12075 | 6313 ft | 258 kts | 249° |
| 2026-04-29 15:44 | 48.33942 | -89.14583 | 6838 ft | 261 kts | 249° |
| 2026-04-29 15:44 | 48.33224 | -89.17093 | 7342 ft | 262 kts | 249° |
| 2026-04-29 15:44 | 48.32495 | -89.19608 | 7830 ft | 263 kts | 248° |
| 2026-04-29 15:44 | 48.31757 | -89.22132 | 8343 ft | 264 kts | 248° |
| 2026-04-29 15:45 | 48.31014 | -89.24665 | 8858 ft | 266 kts | 248° |
| 2026-04-29 15:45 | 48.30265 | -89.27212 | 9385 ft | 267 kts | 248° |
| 2026-04-29 15:45 | 48.29511 | -89.29770 | 9919 ft | 269 kts | 248° |
| 2026-04-29 15:45 | 48.28745 | -89.32363 | 10399 ft | 278 kts | 248° |
| 2026-04-29 15:46 | 48.27947 | -89.35045 | 10848 ft | 292 kts | 247° |
| 2026-04-29 15:46 | 48.27102 | -89.37900 | 11315 ft | 307 kts | 247° |
| 2026-04-29 15:46 | 48.26113 | -89.40809 | 11782 ft | 321 kts | 233° |
| 2026-04-29 15:46 | 48.24341 | -89.42916 | 12262 ft | 336 kts | 204° |
| 2026-04-29 15:47 | 48.22005 | -89.43538 | 12775 ft | 351 kts | 179° |
| 2026-04-29 15:47 | 48.19549 | -89.43115 | 13336 ft | 359 kts | 176° |
| 2026-04-29 15:47 | 48.17031 | -89.42756 | 13866 ft | 367 kts | 176° |
| 2026-04-29 15:47 | 48.14459 | -89.42415 | 14330 ft | 376 kts | 177° |
| 2026-04-29 15:48 | 48.11816 | -89.42081 | 14678 ft | 386 kts | 177° |
| 2026-04-29 15:48 | 48.09110 | -89.41748 | 15041 ft | 395 kts | 177° |
| 2026-04-29 15:48 | 48.06343 | -89.41412 | 15403 ft | 403 kts | 177° |
| 2026-04-29 15:48 | 48.03529 | -89.41071 | 15787 ft | 407 kts | 177° |
| 2026-04-29 15:49 | 48.00698 | -89.40729 | 16171 ft | 408 kts | 177° |
| 2026-04-29 15:49 | 47.97862 | -89.40387 | 16561 ft | 410 kts | 177° |
| 2026-04-29 15:49 | 47.95016 | -89.40044 | 16952 ft | 412 kts | 177° |
| 2026-04-29 15:49 | 47.92156 | -89.39700 | 17349 ft | 413 kts | 177° |
| 2026-04-29 15:50 | 47.89281 | -89.39355 | 17754 ft | 415 kts | 178° |
| 2026-04-29 15:50 | 47.86399 | -89.39008 | 18159 ft | 417 kts | 177° |
| 2026-04-29 15:50 | 47.83504 | -89.38661 | 18546 ft | 419 kts | 177° |
| 2026-04-29 15:50 | 47.80591 | -89.38312 | 18897 ft | 420 kts | 178° |
| 2026-04-29 15:51 | 47.77712 | -89.37968 | 19249 ft | 422 kts | 178° |
| 2026-04-29 15:51 | 47.74776 | -89.37617 | 19613 ft | 424 kts | 178° |
| 2026-04-29 15:51 | 47.71831 | -89.37265 | 19979 ft | 426 kts | 178° |
| 2026-04-29 15:51 | 47.68872 | -89.36913 | 20345 ft | 428 kts | 178° |
| 2026-04-29 15:52 | 47.65904 | -89.36559 | 20720 ft | 430 kts | 178° |
| 2026-04-29 15:52 | 47.62915 | -89.36203 | 21094 ft | 431 kts | 178° |
| 2026-04-29 15:52 | 47.59916 | -89.35847 | 21486 ft | 434 kts | 178° |
| 2026-04-29 15:52 | 47.56900 | -89.35489 | 21873 ft | 436 kts | 178° |
| 2026-04-29 15:53 | 47.53870 | -89.35130 | 22264 ft | 438 kts | 178° |
| 2026-04-29 15:53 | 47.50824 | -89.34769 | 22660 ft | 440 kts | 178° |
| 2026-04-29 15:53 | 47.47768 | -89.34407 | 23068 ft | 442 kts | 178° |
| 2026-04-29 15:53 | 47.44694 | -89.34044 | 23474 ft | 443 kts | 178° |
| 2026-04-29 15:54 | 47.41617 | -89.33681 | 23848 ft | 445 kts | 178° |
| 2026-04-29 15:54 | 47.38526 | -89.33317 | 24189 ft | 446 kts | 178° |
| 2026-04-29 15:54 | 47.35429 | -89.32952 | 24534 ft | 447 kts | 178° |
| 2026-04-29 15:54 | 47.32324 | -89.32587 | 24884 ft | 448 kts | 178° |
| 2026-04-29 15:55 | 47.29212 | -89.32222 | 25236 ft | 449 kts | 178° |
| 2026-04-29 15:55 | 47.26095 | -89.31856 | 25590 ft | 450 kts | 178° |
| 2026-04-29 15:55 | 47.22974 | -89.31491 | 25952 ft | 450 kts | 178° |
| 2026-04-29 15:55 | 47.19851 | -89.31125 | 26318 ft | 451 kts | 178° |
| 2026-04-29 15:56 | 47.16764 | -89.30764 | 26680 ft | 451 kts | 178° |
| 2026-04-29 15:56 | 47.13642 | -89.30400 | 27053 ft | 451 kts | 178° |
| 2026-04-29 15:56 | 47.10513 | -89.30034 | 27438 ft | 450 kts | 178° |
| 2026-04-29 15:56 | 47.07393 | -89.29671 | 27834 ft | 450 kts | 179° |
| 2026-04-29 15:57 | 47.04273 | -89.29308 | 28226 ft | 449 kts | 179° |
| 2026-04-29 15:57 | 47.01160 | -89.28946 | 28619 ft | 449 kts | 179° |
| 2026-04-29 15:57 | 46.98051 | -89.28586 | 29028 ft | 448 kts | 179° |
| 2026-04-29 15:57 | 46.94952 | -89.28226 | 29451 ft | 446 kts | 179° |
| 2026-04-29 15:58 | 46.91859 | -89.27868 | 29866 ft | 445 kts | 179° |
| 2026-04-29 15:58 | 46.89819 | -89.27632 | 30144 ft | 444 kts | 179° |
| 2026-04-29 15:58 | 46.85709 | -89.27157 | 30611 ft | 441 kts | 179° |
| 2026-04-29 15:58 | 46.83687 | -89.26923 | 30847 ft | 440 kts | 179° |
| 2026-04-29 15:59 | 46.80627 | -89.26570 | 31090 ft | 441 kts | 179° |
| 2026-04-29 15:59 | 46.77565 | -89.26218 | 31324 ft | 442 kts | 179° |
| 2026-04-29 15:59 | 46.74494 | -89.25864 | 31557 ft | 443 kts | 179° |
| 2026-04-29 15:59 | 46.70418 | -89.25396 | 31873 ft | 444 kts | 179° |
| 2026-04-29 16:00 | 46.68341 | -89.25157 | 32036 ft | 444 kts | 179° |
| 2026-04-29 16:00 | 46.65257 | -89.24803 | 32274 ft | 444 kts | 179° |
| 2026-04-29 16:00 | 46.62176 | -89.24451 | 32516 ft | 445 kts | 179° |
| 2026-04-29 16:00 | 46.59090 | -89.24097 | 32759 ft | 445 kts | 179° |
| 2026-04-29 16:01 | 46.56005 | -89.23745 | 33012 ft | 445 kts | 179° |
| 2026-04-29 16:01 | 46.52922 | -89.23393 | 33266 ft | 445 kts | 179° |
| 2026-04-29 16:01 | 46.49839 | -89.23042 | 33516 ft | 444 kts | 179° |
| 2026-04-29 16:01 | 46.46760 | -89.22691 | 33765 ft | 444 kts | 179° |
| 2026-04-29 16:02 | 46.43681 | -89.22340 | 34021 ft | 443 kts | 179° |
| 2026-04-29 16:02 | 46.40651 | -89.21996 | 34237 ft | 442 kts | 179° |
| 2026-04-29 16:02 | 46.37584 | -89.21648 | 34452 ft | 442 kts | 179° |
| 2026-04-29 16:02 | 46.34520 | -89.21301 | 34666 ft | 441 kts | 179° |
| 2026-04-29 16:03 | 46.31467 | -89.20955 | 34883 ft | 440 kts | 179° |
| 2026-04-29 16:03 | 46.28419 | -89.20610 | 35057 ft | 440 kts | 179° |
| 2026-04-29 16:03 | 46.25357 | -89.20265 | 35061 ft | 444 kts | 179° |
| 2026-04-29 16:04 | 46.19133 | -89.19562 | 35065 ft | 453 kts | 179° |
| 2026-04-29 16:04 | 46.12778 | -89.18847 | 35049 ft | 462 kts | 179° |
| 2026-04-29 16:05 | 46.06358 | -89.18126 | 35062 ft | 462 kts | 179° |
| 2026-04-29 16:05 | 45.99943 | -89.17408 | 35031 ft | 462 kts | 180° |
| 2026-04-29 16:06 | 45.93533 | -89.16691 | 35039 ft | 462 kts | 180° |
| 2026-04-29 16:06 | 45.87128 | -89.15977 | 35028 ft | 461 kts | 180° |
| 2026-04-29 16:07 | 45.80732 | -89.15265 | 35049 ft | 461 kts | 180° |
| 2026-04-29 16:07 | 45.74337 | -89.14556 | 35048 ft | 461 kts | 180° |
| 2026-04-29 16:08 | 45.67950 | -89.13848 | 35066 ft | 460 kts | 180° |
| 2026-04-29 16:08 | 45.61574 | -89.13144 | 35053 ft | 459 kts | 180° |
| 2026-04-29 16:09 | 45.55202 | -89.12442 | 35074 ft | 459 kts | 180° |
| 2026-04-29 16:09 | 45.48878 | -89.11746 | 35059 ft | 459 kts | 180° |
| 2026-04-29 16:10 | 45.42524 | -89.11049 | 35071 ft | 458 kts | 180° |
| 2026-04-29 16:10 | 45.36172 | -89.10353 | 35056 ft | 458 kts | 180° |
| 2026-04-29 16:11 | 45.29827 | -89.09660 | 35070 ft | 457 kts | 180° |
| 2026-04-29 16:11 | 45.23481 | -89.08968 | 35050 ft | 457 kts | 180° |
| 2026-04-29 16:12 | 45.17148 | -89.08279 | 35057 ft | 456 kts | 180° |
| 2026-04-29 16:12 | 45.10819 | -89.07592 | 35047 ft | 456 kts | 180° |
| 2026-04-29 16:13 | 45.04540 | -89.07546 | 35059 ft | 444 kts | 195° |
| 2026-04-29 16:13 | 44.98435 | -89.09130 | 35061 ft | 447 kts | 194° |
| 2026-04-29 16:14 | 44.92326 | -89.10719 | 35063 ft | 446 kts | 194° |
| 2026-04-29 16:14 | 44.86227 | -89.12323 | 35065 ft | 446 kts | 194° |
| 2026-04-29 16:15 | 44.80131 | -89.13924 | 35079 ft | 445 kts | 194° |
| 2026-04-29 16:15 | 44.74035 | -89.15522 | 35075 ft | 446 kts | 194° |
| 2026-04-29 16:16 | 44.67954 | -89.17113 | 35075 ft | 444 kts | 194° |
| 2026-04-29 16:16 | 44.61872 | -89.18701 | 35066 ft | 444 kts | 194° |
| 2026-04-29 16:17 | 44.55842 | -89.20271 | 35064 ft | 443 kts | 194° |
| 2026-04-29 16:17 | 44.49779 | -89.21847 | 35071 ft | 443 kts | 195° |
| 2026-04-29 16:18 | 44.43729 | -89.23417 | 35085 ft | 442 kts | 195° |
| 2026-04-29 16:18 | 44.37685 | -89.24981 | 35074 ft | 442 kts | 195° |
| 2026-04-29 16:19 | 44.31650 | -89.26540 | 35084 ft | 441 kts | 195° |
| 2026-04-29 16:19 | 44.25622 | -89.28094 | 35071 ft | 440 kts | 194° |
| 2026-04-29 16:20 | 44.19604 | -89.29641 | 35073 ft | 440 kts | 195° |
| 2026-04-29 16:20 | 44.13584 | -89.31186 | 35053 ft | 440 kts | 194° |
| 2026-04-29 16:21 | 44.07616 | -89.32716 | 35054 ft | 439 kts | 194° |
| 2026-04-29 16:21 | 44.01611 | -89.34251 | 35036 ft | 439 kts | 194° |
| 2026-04-29 16:22 | 43.95604 | -89.35783 | 35050 ft | 438 kts | 194° |
| 2026-04-29 16:22 | 43.89603 | -89.37311 | 35038 ft | 438 kts | 194° |
| 2026-04-29 16:23 | 43.83611 | -89.38833 | 35050 ft | 438 kts | 194° |
| 2026-04-29 16:23 | 43.77617 | -89.40353 | 35039 ft | 438 kts | 194° |
| 2026-04-29 16:24 | 43.71635 | -89.41867 | 35054 ft | 437 kts | 194° |
| 2026-04-29 16:24 | 43.65694 | -89.43367 | 35040 ft | 437 kts | 194° |
| 2026-04-29 16:25 | 43.59726 | -89.44871 | 35059 ft | 436 kts | 194° |
| 2026-04-29 16:25 | 43.53758 | -89.46372 | 35044 ft | 435 kts | 194° |
| 2026-04-29 16:26 | 43.47808 | -89.47865 | 35056 ft | 435 kts | 194° |
| 2026-04-29 16:26 | 43.41861 | -89.49355 | 35047 ft | 434 kts | 194° |
| 2026-04-29 16:27 | 43.35921 | -89.50840 | 35059 ft | 433 kts | 194° |
| 2026-04-29 16:27 | 43.29990 | -89.52319 | 35040 ft | 433 kts | 194° |
| 2026-04-29 16:28 | 43.24072 | -89.53794 | 35048 ft | 432 kts | 194° |
| 2026-04-29 16:28 | 43.18156 | -89.55263 | 35038 ft | 432 kts | 194° |
| 2026-04-29 16:29 | 43.12245 | -89.56730 | 35046 ft | 431 kts | 194° |
| 2026-04-29 16:29 | 43.06341 | -89.58191 | 35037 ft | 431 kts | 194° |
| 2026-04-29 16:30 | 43.00484 | -89.59638 | 35048 ft | 430 kts | 194° |
| 2026-04-29 16:30 | 42.94587 | -89.61092 | 35039 ft | 431 kts | 194° |
| 2026-04-29 16:31 | 42.88697 | -89.62542 | 35044 ft | 430 kts | 194° |
| 2026-04-29 16:31 | 42.82802 | -89.63989 | 35032 ft | 430 kts | 194° |
| 2026-04-29 16:32 | 42.76916 | -89.65433 | 35042 ft | 430 kts | 194° |
| 2026-04-29 16:32 | 42.71027 | -89.66873 | 35035 ft | 430 kts | 194° |
| 2026-04-29 16:33 | 42.62202 | -89.69028 | 35039 ft | 430 kts | 194° |
| 2026-04-29 16:33 | 42.56320 | -89.70460 | 35039 ft | 429 kts | 194° |
| 2026-04-29 16:34 | 42.50438 | -89.71889 | 35042 ft | 429 kts | 194° |
| 2026-04-29 16:34 | 42.44562 | -89.73315 | 35043 ft | 429 kts | 193° |
| 2026-04-29 16:35 | 42.38688 | -89.74737 | 35067 ft | 429 kts | 193° |
| 2026-04-29 16:35 | 42.32810 | -89.76157 | 35074 ft | 429 kts | 193° |
| 2026-04-29 16:36 | 42.26934 | -89.77574 | 35075 ft | 429 kts | 193° |
| 2026-04-29 16:36 | 42.21057 | -89.78989 | 35066 ft | 429 kts | 193° |
| 2026-04-29 16:37 | 42.15224 | -89.80391 | 35070 ft | 429 kts | 193° |
| 2026-04-29 16:37 | 42.10297 | -89.81572 | 35063 ft | 429 kts | 193° |
| 2026-04-29 16:38 | 42.03475 | -89.83206 | 35071 ft | 429 kts | 193° |
| 2026-04-29 16:38 | 41.97594 | -89.84611 | 35068 ft | 429 kts | 193° |
| 2026-04-29 16:39 | 41.91722 | -89.86012 | 35070 ft | 429 kts | 194° |
| 2026-04-29 16:39 | 41.85845 | -89.87411 | 35069 ft | 429 kts | 194° |
| 2026-04-29 16:40 | 41.79971 | -89.88806 | 35069 ft | 429 kts | 194° |
| 2026-04-29 16:40 | 41.74099 | -89.90199 | 35063 ft | 428 kts | 194° |
| 2026-04-29 16:41 | 41.68226 | -89.91589 | 35066 ft | 429 kts | 194° |
| 2026-04-29 16:41 | 41.62395 | -89.92967 | 35070 ft | 428 kts | 194° |
| 2026-04-29 16:42 | 41.56529 | -89.94350 | 35065 ft | 428 kts | 194° |
| 2026-04-29 16:42 | 41.50663 | -89.95731 | 35066 ft | 428 kts | 194° |
| 2026-04-29 16:43 | 41.44805 | -89.97108 | 35067 ft | 427 kts | 194° |
| 2026-04-29 16:43 | 41.38950 | -89.98481 | 35065 ft | 427 kts | 194° |
| 2026-04-29 16:44 | 41.33102 | -89.99851 | 35069 ft | 427 kts | 194° |
| 2026-04-29 16:44 | 41.27257 | -90.01217 | 35067 ft | 426 kts | 194° |
| 2026-04-29 16:45 | 41.21422 | -90.02579 | 35077 ft | 426 kts | 194° |
| 2026-04-29 16:45 | 41.15601 | -90.03935 | 35070 ft | 424 kts | 194° |
| 2026-04-29 16:46 | 41.09734 | -90.04918 | 35086 ft | 429 kts | 186° |
| 2026-04-29 16:46 | 41.03807 | -90.05140 | 35079 ft | 428 kts | 187° |
| 2026-04-29 16:47 | 40.97845 | -90.05363 | 35086 ft | 429 kts | 187° |
| 2026-04-29 16:47 | 40.91891 | -90.05582 | 35083 ft | 428 kts | 187° |
| 2026-04-29 16:48 | 40.85939 | -90.05801 | 35084 ft | 428 kts | 187° |
| 2026-04-29 16:48 | 40.79983 | -90.06020 | 35069 ft | 428 kts | 187° |
| 2026-04-29 16:49 | 40.74034 | -90.06238 | 35071 ft | 428 kts | 187° |
| 2026-04-29 16:49 | 40.68083 | -90.06455 | 35072 ft | 428 kts | 187° |
| 2026-04-29 16:50 | 40.62131 | -90.06673 | 35072 ft | 428 kts | 187° |
| 2026-04-29 16:50 | 40.56181 | -90.06890 | 35073 ft | 427 kts | 187° |
| 2026-04-29 16:51 | 40.50231 | -90.07106 | 35076 ft | 428 kts | 187° |
| 2026-04-29 16:51 | 40.44281 | -90.07322 | 35074 ft | 428 kts | 187° |
| 2026-04-29 16:52 | 40.38366 | -90.07537 | 35081 ft | 428 kts | 187° |
| 2026-04-29 16:52 | 40.32418 | -90.07752 | 35076 ft | 427 kts | 187° |
| 2026-04-29 16:53 | 40.26475 | -90.07967 | 35077 ft | 428 kts | 187° |
| 2026-04-29 16:53 | 40.20529 | -90.08181 | 35075 ft | 427 kts | 187° |
| 2026-04-29 16:54 | 40.14580 | -90.08396 | 35078 ft | 428 kts | 186° |
| 2026-04-29 16:54 | 40.08631 | -90.08609 | 35075 ft | 428 kts | 186° |
| 2026-04-29 16:55 | 40.02679 | -90.08823 | 35085 ft | 428 kts | 186° |
| 2026-04-29 16:55 | 39.96723 | -90.09036 | 35090 ft | 429 kts | 186° |
| 2026-04-29 16:56 | 39.91763 | -90.09214 | 35100 ft | 429 kts | 186° |
| 2026-04-29 16:56 | 39.84818 | -90.09462 | 35104 ft | 429 kts | 186° |
| 2026-04-29 16:57 | 39.79822 | -90.09639 | 35105 ft | 429 kts | 186° |
| 2026-04-29 16:57 | 39.72875 | -90.09887 | 35101 ft | 429 kts | 186° |
| 2026-04-29 16:58 | 39.67913 | -90.10063 | 35101 ft | 430 kts | 186° |
| 2026-04-29 16:58 | 39.61934 | -90.10275 | 35092 ft | 430 kts | 186° |
| 2026-04-29 16:59 | 39.55954 | -90.10487 | 35089 ft | 430 kts | 186° |
| 2026-04-29 16:59 | 39.49974 | -90.10698 | 35085 ft | 430 kts | 186° |
| 2026-04-29 17:00 | 39.43992 | -90.10909 | 35078 ft | 430 kts | 186° |
| 2026-04-29 17:00 | 39.38001 | -90.11120 | 35075 ft | 430 kts | 186° |
| 2026-04-29 17:01 | 39.32014 | -90.11330 | 35079 ft | 430 kts | 186° |
| 2026-04-29 17:01 | 39.26028 | -90.11540 | 35075 ft | 430 kts | 185° |
| 2026-04-29 17:02 | 39.20036 | -90.11750 | 35085 ft | 430 kts | 185° |
| 2026-04-29 17:02 | 39.14051 | -90.11959 | 35091 ft | 431 kts | 185° |
| 2026-04-29 17:03 | 39.08055 | -90.12169 | 35100 ft | 431 kts | 185° |
| 2026-04-29 17:03 | 39.02096 | -90.12376 | 35098 ft | 431 kts | 185° |
| 2026-04-29 17:04 | 38.96091 | -90.12585 | 35115 ft | 432 kts | 185° |
| 2026-04-29 17:04 | 38.90077 | -90.12795 | 35117 ft | 433 kts | 185° |
| 2026-04-29 17:05 | 38.84038 | -90.13004 | 35114 ft | 435 kts | 185° |
| 2026-04-29 17:05 | 38.77963 | -90.13214 | 35109 ft | 438 kts | 185° |
| 2026-04-29 17:06 | 38.71865 | -90.13425 | 35106 ft | 440 kts | 185° |
| 2026-04-29 17:06 | 38.65730 | -90.13637 | 35115 ft | 442 kts | 185° |
| 2026-04-29 17:07 | 38.59566 | -90.13849 | 35111 ft | 445 kts | 185° |
| 2026-04-29 17:07 | 38.53349 | -90.14063 | 35109 ft | 449 kts | 185° |
| 2026-04-29 17:08 | 38.47082 | -90.14278 | 35112 ft | 452 kts | 185° |
| 2026-04-29 17:08 | 38.40762 | -90.14494 | 35103 ft | 456 kts | 185° |
| 2026-04-29 17:09 | 38.34442 | -90.14710 | 35105 ft | 458 kts | 185° |
| 2026-04-29 17:09 | 38.28071 | -90.14928 | 35098 ft | 458 kts | 185° |
| 2026-04-29 17:10 | 38.21700 | -90.15145 | 35099 ft | 458 kts | 185° |
| 2026-04-29 17:10 | 38.15327 | -90.15362 | 35107 ft | 458 kts | 185° |
| 2026-04-29 17:11 | 38.08950 | -90.15579 | 35102 ft | 458 kts | 185° |
| 2026-04-29 17:11 | 38.02582 | -90.15795 | 35099 ft | 458 kts | 185° |
| 2026-04-29 17:12 | 37.96216 | -90.16010 | 35100 ft | 457 kts | 185° |
| 2026-04-29 17:12 | 37.90933 | -90.16188 | 35101 ft | 457 kts | 185° |
| 2026-04-29 17:13 | 37.83508 | -90.16439 | 35086 ft | 457 kts | 185° |
| 2026-04-29 17:13 | 37.77148 | -90.16653 | 35088 ft | 457 kts | 185° |
| 2026-04-29 17:14 | 37.70784 | -90.16867 | 35086 ft | 458 kts | 185° |
| 2026-04-29 17:14 | 37.64417 | -90.17081 | 35093 ft | 458 kts | 185° |
| 2026-04-29 17:15 | 37.58080 | -90.17293 | 35086 ft | 459 kts | 185° |
| 2026-04-29 17:15 | 37.51658 | -90.17508 | 35089 ft | 460 kts | 186° |
| 2026-04-29 17:16 | 37.45273 | -90.17721 | 35089 ft | 462 kts | 186° |
| 2026-04-29 17:16 | 37.38848 | -90.17935 | 35090 ft | 463 kts | 186° |
| 2026-04-29 17:17 | 37.32395 | -90.18150 | 35087 ft | 464 kts | 186° |
| 2026-04-29 17:17 | 37.25932 | -90.18365 | 35082 ft | 465 kts | 187° |
| 2026-04-29 17:18 | 37.19453 | -90.18580 | 35075 ft | 467 kts | 187° |
| 2026-04-29 17:18 | 37.12945 | -90.18795 | 35076 ft | 468 kts | 188° |
| 2026-04-29 17:19 | 37.06425 | -90.19010 | 35082 ft | 470 kts | 188° |
| 2026-04-29 17:19 | 36.99884 | -90.19226 | 35080 ft | 470 kts | 188° |
| 2026-04-29 17:20 | 36.93338 | -90.19442 | 35085 ft | 471 kts | 188° |
| 2026-04-29 17:20 | 36.86820 | -90.19656 | 35091 ft | 472 kts | 189° |
| 2026-04-29 17:21 | 36.80257 | -90.19871 | 35094 ft | 473 kts | 189° |
| 2026-04-29 17:21 | 36.73676 | -90.20087 | 35095 ft | 473 kts | 189° |
| 2026-04-29 17:22 | 36.67092 | -90.20302 | 35089 ft | 474 kts | 189° |
| 2026-04-29 17:22 | 36.60494 | -90.20518 | 35091 ft | 474 kts | 189° |
| 2026-04-29 17:23 | 36.53887 | -90.20733 | 35087 ft | 475 kts | 189° |
| 2026-04-29 17:23 | 36.47271 | -90.20948 | 35087 ft | 476 kts | 190° |
| 2026-04-29 17:24 | 36.40649 | -90.21163 | 35068 ft | 477 kts | 190° |
| 2026-04-29 17:24 | 36.34011 | -90.21378 | 35066 ft | 477 kts | 190° |
| 2026-04-29 17:25 | 36.27370 | -90.21593 | 35066 ft | 478 kts | 190° |
| 2026-04-29 17:25 | 36.24085 | -90.21693 | 35215 ft | 478 kts | 195° |
| 2026-04-29 17:25 | 36.20793 | -90.21796 | 35094 ft | 468 kts | 196° |
| 2026-04-29 17:26 | 36.14343 | -90.22013 | 35068 ft | 462 kts | 196° |
| 2026-04-29 17:26 | 36.07911 | -90.22221 | 35064 ft | 463 kts | 196° |
| 2026-04-29 17:27 | 36.01476 | -90.22428 | 35058 ft | 463 kts | 196° |
| 2026-04-29 17:27 | 35.95022 | -90.22635 | 35058 ft | 464 kts | 195° |
| 2026-04-29 17:28 | 35.88568 | -90.22841 | 35060 ft | 464 kts | 195° |
| 2026-04-29 17:28 | 35.82114 | -90.23048 | 35064 ft | 464 kts | 195° |
| 2026-04-29 17:29 | 35.75656 | -90.23254 | 35059 ft | 464 kts | 195° |
| 2026-04-29 17:29 | 35.70290 | -90.23425 | 35051 ft | 464 kts | 195° |
| 2026-04-29 17:30 | 35.62737 | -90.23666 | 35051 ft | 464 kts | 195° |
| 2026-04-29 17:30 | 35.56275 | -90.23871 | 35052 ft | 465 kts | 195° |
| 2026-04-29 17:31 | 35.49809 | -90.24076 | 35055 ft | 465 kts | 195° |
| 2026-04-29 17:31 | 35.43383 | -90.24281 | 35050 ft | 465 kts | 195° |
| 2026-04-29 17:32 | 35.36911 | -90.24485 | 35061 ft | 465 kts | 195° |
| 2026-04-29 17:32 | 35.30436 | -90.24690 | 35070 ft | 466 kts | 195° |
| 2026-04-29 17:33 | 35.23953 | -90.24894 | 35075 ft | 466 kts | 195° |
| 2026-04-29 17:33 | 35.17469 | -90.25098 | 35078 ft | 466 kts | 195° |
| 2026-04-29 17:34 | 35.10979 | -90.25302 | 35077 ft | 467 kts | 195° |
| 2026-04-29 17:34 | 35.04486 | -90.25506 | 35077 ft | 467 kts | 194° |
| 2026-04-29 17:35 | 34.94729 | -90.25811 | 35062 ft | 468 kts | 194° |
| 2026-04-29 17:36 | 34.88256 | -90.26014 | 35058 ft | 468 kts | 194° |
| 2026-04-29 17:36 | 34.81740 | -90.26217 | 35066 ft | 469 kts | 194° |
| 2026-04-29 17:37 | 34.75212 | -90.26420 | 35077 ft | 470 kts | 194° |
| 2026-04-29 17:37 | 34.68675 | -90.26624 | 35080 ft | 470 kts | 194° |
| 2026-04-29 17:38 | 34.62133 | -90.26828 | 35079 ft | 471 kts | 194° |
| 2026-04-29 17:38 | 34.55574 | -90.27031 | 35068 ft | 472 kts | 193° |
| 2026-04-29 17:39 | 34.49008 | -90.27234 | 35058 ft | 472 kts | 193° |
| 2026-04-29 17:39 | 34.42449 | -90.27437 | 35047 ft | 471 kts | 193° |
| 2026-04-29 17:40 | 34.35891 | -90.27640 | 35053 ft | 471 kts | 193° |
| 2026-04-29 17:40 | 34.29333 | -90.27842 | 35055 ft | 471 kts | 193° |
| 2026-04-29 17:41 | 34.22826 | -90.28042 | 35046 ft | 471 kts | 193° |
| 2026-04-29 17:41 | 34.16279 | -90.28243 | 35039 ft | 470 kts | 193° |
| 2026-04-29 17:42 | 34.09670 | -90.27958 | 35038 ft | 479 kts | 187° |
| 2026-04-29 17:42 | 34.03030 | -90.27459 | 35021 ft | 477 kts | 188° |
| 2026-04-29 17:43 | 33.96402 | -90.27005 | 35017 ft | 477 kts | 188° |
| 2026-04-29 17:43 | 33.89777 | -90.26555 | 35012 ft | 477 kts | 188° |
| 2026-04-29 17:44 | 33.83159 | -90.26107 | 35008 ft | 477 kts | 188° |
| 2026-04-29 17:44 | 33.76537 | -90.25658 | 35015 ft | 477 kts | 188° |
| 2026-04-29 17:45 | 33.69912 | -90.25210 | 35020 ft | 477 kts | 188° |
| 2026-04-29 17:45 | 33.63288 | -90.24763 | 35023 ft | 477 kts | 187° |
| 2026-04-29 17:46 | 33.56657 | -90.24317 | 35029 ft | 477 kts | 187° |
| 2026-04-29 17:46 | 33.50079 | -90.23874 | 35029 ft | 477 kts | 187° |
| 2026-04-29 17:47 | 33.43458 | -90.23429 | 35023 ft | 477 kts | 187° |
| 2026-04-29 17:47 | 33.36838 | -90.22985 | 35027 ft | 477 kts | 187° |
| 2026-04-29 17:48 | 33.30217 | -90.22542 | 35014 ft | 476 kts | 186° |
| 2026-04-29 17:48 | 33.23598 | -90.22099 | 35006 ft | 476 kts | 186° |
| 2026-04-29 17:49 | 33.16978 | -90.21658 | 35005 ft | 476 kts | 186° |
| 2026-04-29 17:49 | 33.10365 | -90.21217 | 34999 ft | 476 kts | 186° |
| 2026-04-29 17:50 | 33.03749 | -90.20777 | 34996 ft | 476 kts | 186° |
| 2026-04-29 17:50 | 32.97132 | -90.20337 | 34996 ft | 476 kts | 186° |
| 2026-04-29 17:51 | 32.90508 | -90.19897 | 34996 ft | 477 kts | 186° |
| 2026-04-29 17:51 | 32.83882 | -90.19458 | 34992 ft | 477 kts | 186° |
| 2026-04-29 17:52 | 32.77267 | -90.19021 | 34993 ft | 477 kts | 186° |
| 2026-04-29 17:52 | 32.70633 | -90.18582 | 34997 ft | 478 kts | 186° |
| 2026-04-29 17:53 | 32.64037 | -90.18147 | 34980 ft | 477 kts | 186° |
| 2026-04-29 17:53 | 32.57397 | -90.17710 | 34988 ft | 478 kts | 185° |
| 2026-04-29 17:54 | 32.50749 | -90.17272 | 34986 ft | 479 kts | 185° |
| 2026-04-29 17:54 | 32.45215 | -90.16909 | 34980 ft | 479 kts | 185° |
| 2026-04-29 17:55 | 32.38554 | -90.16472 | 35011 ft | 479 kts | 185° |
| 2026-04-29 17:55 | 32.31899 | -90.16036 | 34999 ft | 479 kts | 185° |
| 2026-04-29 17:56 | 32.25251 | -90.15601 | 34984 ft | 479 kts | 185° |
| 2026-04-29 17:56 | 32.18596 | -90.15167 | 34983 ft | 479 kts | 185° |
| 2026-04-29 17:57 | 32.11947 | -90.14734 | 34986 ft | 479 kts | 185° |
| 2026-04-29 17:57 | 32.05293 | -90.14300 | 34985 ft | 479 kts | 185° |
| 2026-04-29 17:58 | 31.98639 | -90.13868 | 34984 ft | 479 kts | 185° |
| 2026-04-29 17:58 | 31.91978 | -90.13435 | 34988 ft | 480 kts | 185° |
| 2026-04-29 17:59 | 31.85352 | -90.13006 | 34996 ft | 480 kts | 185° |
| 2026-04-29 17:59 | 31.78682 | -90.12574 | 34994 ft | 481 kts | 185° |
| 2026-04-29 18:00 | 31.71998 | -90.12142 | 35003 ft | 482 kts | 185° |
| 2026-04-29 18:00 | 31.65301 | -90.11710 | 35005 ft | 482 kts | 185° |
| 2026-04-29 18:01 | 31.58588 | -90.11277 | 35009 ft | 483 kts | 185° |
| 2026-04-29 18:01 | 31.51867 | -90.10844 | 35015 ft | 484 kts | 185° |
| 2026-04-29 18:02 | 31.45129 | -90.10411 | 35020 ft | 485 kts | 185° |
| 2026-04-29 18:02 | 31.38377 | -90.09978 | 35028 ft | 486 kts | 185° |
| 2026-04-29 18:03 | 31.31611 | -90.09544 | 35026 ft | 488 kts | 185° |
| 2026-04-29 18:03 | 31.24826 | -90.09110 | 35026 ft | 489 kts | 185° |
| 2026-04-29 18:04 | 31.18030 | -90.08676 | 35027 ft | 489 kts | 184° |
| 2026-04-29 18:04 | 31.11221 | -90.08241 | 35044 ft | 490 kts | 184° |
| 2026-04-29 18:05 | 31.04411 | -90.07807 | 35034 ft | 490 kts | 184° |
| 2026-04-29 18:05 | 30.97642 | -90.07377 | 35033 ft | 491 kts | 184° |
| 2026-04-29 18:06 | 30.90815 | -90.06943 | 35030 ft | 492 kts | 184° |
| 2026-04-29 18:06 | 30.83987 | -90.06509 | 35029 ft | 492 kts | 184° |
| 2026-04-29 18:07 | 30.77136 | -90.06076 | 35030 ft | 493 kts | 183° |
| 2026-04-29 18:07 | 30.70278 | -90.05642 | 35032 ft | 494 kts | 183° |
| 2026-04-29 18:08 | 30.63404 | -90.05207 | 35029 ft | 495 kts | 183° |
| 2026-04-29 18:08 | 30.56522 | -90.04773 | 35029 ft | 496 kts | 183° |
| 2026-04-29 18:09 | 30.49630 | -90.04339 | 35025 ft | 497 kts | 182° |
| 2026-04-29 18:09 | 30.42720 | -90.03904 | 35025 ft | 497 kts | 182° |
| 2026-04-29 18:10 | 30.35845 | -90.03473 | 35029 ft | 498 kts | 182° |
| 2026-04-29 18:10 | 30.28915 | -90.03038 | 35026 ft | 499 kts | 182° |
| 2026-04-29 18:11 | 30.21976 | -90.02604 | 35034 ft | 500 kts | 182° |
| 2026-04-29 18:11 | 30.15015 | -90.02168 | 35033 ft | 501 kts | 182° |
| 2026-04-29 18:12 | 30.08046 | -90.01733 | 35035 ft | 502 kts | 182° |
| 2026-04-29 18:12 | 30.01062 | -90.01297 | 35035 ft | 503 kts | 182° |
| 2026-04-29 18:13 | 29.94069 | -90.00862 | 35034 ft | 504 kts | 182° |
| 2026-04-29 18:13 | 29.87066 | -90.00426 | 35032 ft | 504 kts | 182° |
| 2026-04-29 18:13 | 29.83638 | -90.00485 | 35024 ft | 494 kts | 194° |
| 2026-04-29 18:14 | 29.80240 | -90.01038 | 35031 ft | 495 kts | 194° |
| 2026-04-29 18:14 | 29.73403 | -90.02048 | 35034 ft | 496 kts | 194° |
| 2026-04-29 18:15 | 29.66555 | -90.03076 | 35033 ft | 496 kts | 194° |
| 2026-04-29 18:15 | 29.59706 | -90.04103 | 35030 ft | 496 kts | 194° |
| 2026-04-29 18:16 | 29.52859 | -90.05130 | 35033 ft | 496 kts | 194° |
| 2026-04-29 18:16 | 29.46010 | -90.06155 | 35037 ft | 497 kts | 194° |
| 2026-04-29 18:17 | 29.39157 | -90.07179 | 35037 ft | 497 kts | 194° |
| 2026-04-29 18:17 | 29.32300 | -90.08201 | 35036 ft | 497 kts | 195° |
| 2026-04-29 18:18 | 29.25431 | -90.09225 | 35032 ft | 498 kts | 195° |
| 2026-04-29 18:18 | 29.18508 | -90.09966 | 35011 ft | 509 kts | 182° |
| 2026-04-29 18:18 | 29.14997 | -90.09210 | 35021 ft | 521 kts | 166° |
| 2026-04-29 18:19 | 29.11569 | -90.07786 | 35017 ft | 525 kts | 165° |
| 2026-04-29 18:19 | 29.04744 | -90.04933 | 35018 ft | 526 kts | 164° |
| 2026-04-29 18:20 | 28.97878 | -90.02008 | 35013 ft | 527 kts | 164° |
| 2026-04-29 18:20 | 28.91008 | -89.99080 | 35018 ft | 527 kts | 163° |
| 2026-04-29 18:21 | 28.84136 | -89.96156 | 35016 ft | 527 kts | 163° |
| 2026-04-29 18:21 | 28.77255 | -89.93232 | 35018 ft | 528 kts | 163° |
| 2026-04-29 18:22 | 28.70377 | -89.90313 | 35016 ft | 528 kts | 163° |
| 2026-04-29 18:22 | 28.63489 | -89.87395 | 35017 ft | 528 kts | 163° |
| 2026-04-29 18:23 | 28.56611 | -89.84484 | 35020 ft | 527 kts | 163° |
| 2026-04-29 18:23 | 28.49730 | -89.81577 | 35022 ft | 527 kts | 163° |
| 2026-04-29 18:24 | 28.42855 | -89.78676 | 35019 ft | 527 kts | 163° |
| 2026-04-29 18:24 | 28.35981 | -89.75779 | 35015 ft | 527 kts | 163° |
| 2026-04-29 18:25 | 28.29151 | -89.72904 | 35015 ft | 527 kts | 163° |
| 2026-04-29 18:25 | 28.22275 | -89.70015 | 35019 ft | 527 kts | 163° |
| 2026-04-29 18:26 | 28.15402 | -89.67130 | 35015 ft | 527 kts | 163° |
| 2026-04-29 18:26 | 28.08528 | -89.64249 | 35017 ft | 527 kts | 163° |
| 2026-04-29 18:27 | 28.01653 | -89.61371 | 35014 ft | 526 kts | 163° |
| 2026-04-29 18:27 | 27.94785 | -89.58500 | 35017 ft | 526 kts | 163° |
| 2026-04-29 18:28 | 27.87911 | -89.55630 | 35015 ft | 526 kts | 163° |
| 2026-04-29 18:28 | 27.81046 | -89.52768 | 35017 ft | 526 kts | 163° |
| 2026-04-29 18:29 | 27.74185 | -89.49911 | 35014 ft | 525 kts | 162° |
| 2026-04-29 18:29 | 27.67371 | -89.47078 | 35015 ft | 525 kts | 162° |
| 2026-04-29 18:30 | 27.60518 | -89.44233 | 35015 ft | 525 kts | 162° |
| 2026-04-29 18:30 | 27.53664 | -89.41390 | 35015 ft | 525 kts | 162° |
| 2026-04-29 18:31 | 27.46815 | -89.38554 | 35012 ft | 524 kts | 162° |
| 2026-04-29 18:31 | 27.39967 | -89.35722 | 35010 ft | 524 kts | 162° |
| 2026-04-29 18:32 | 27.33122 | -89.32895 | 35011 ft | 524 kts | 162° |
| 2026-04-29 18:32 | 27.22862 | -89.28663 | 35017 ft | 523 kts | 162° |
| 2026-04-29 18:33 | 27.16026 | -89.25849 | 35010 ft | 523 kts | 162° |
| 2026-04-29 18:33 | 27.09232 | -89.23074 | 35012 ft | 523 kts | 162° |
| 2026-04-29 18:34 | 27.03499 | -89.20757 | 35011 ft | 523 kts | 162° |
| 2026-04-29 18:34 | 26.95544 | -89.17543 | 35018 ft | 523 kts | 162° |
| 2026-04-29 18:35 | 26.88701 | -89.14782 | 35009 ft | 523 kts | 162° |
| 2026-04-29 18:35 | 26.81853 | -89.12022 | 35009 ft | 523 kts | 162° |
| 2026-04-29 18:36 | 26.75018 | -89.09271 | 35001 ft | 522 kts | 162° |
| 2026-04-29 18:36 | 26.68174 | -89.06520 | 35015 ft | 522 kts | 162° |
| 2026-04-29 18:37 | 26.61338 | -89.03776 | 35009 ft | 522 kts | 162° |
| 2026-04-29 18:37 | 26.54543 | -89.01051 | 35007 ft | 522 kts | 162° |
| 2026-04-29 18:38 | 26.47715 | -88.98317 | 35011 ft | 522 kts | 162° |
| 2026-04-29 18:38 | 26.40880 | -88.95584 | 35008 ft | 521 kts | 162° |
| 2026-04-29 18:39 | 26.34051 | -88.92856 | 35010 ft | 521 kts | 162° |
| 2026-04-29 18:39 | 26.27221 | -88.90131 | 35008 ft | 521 kts | 162° |
| 2026-04-29 18:40 | 26.20391 | -88.87410 | 35008 ft | 521 kts | 162° |
| 2026-04-29 18:40 | 26.13568 | -88.84695 | 35008 ft | 521 kts | 162° |
| 2026-04-29 18:41 | 25.99918 | -88.79273 | 35007 ft | 521 kts | 162° |
| 2026-04-29 18:42 | 25.93096 | -88.76569 | 35006 ft | 521 kts | 162° |
| 2026-04-29 18:42 | 25.86272 | -88.73866 | 35007 ft | 520 kts | 162° |
| 2026-04-29 18:43 | 25.79451 | -88.71169 | 35010 ft | 520 kts | 162° |
| 2026-04-29 18:43 | 25.72632 | -88.68475 | 35004 ft | 520 kts | 161° |
| 2026-04-29 18:44 | 25.65855 | -88.65802 | 35007 ft | 520 kts | 161° |
| 2026-04-29 18:44 | 25.59040 | -88.63116 | 35004 ft | 520 kts | 161° |
| 2026-04-29 18:45 | 25.52228 | -88.60436 | 35005 ft | 520 kts | 161° |
| 2026-04-29 18:45 | 25.45412 | -88.57756 | 35002 ft | 519 kts | 161° |
| 2026-04-29 18:46 | 25.38602 | -88.55083 | 35000 ft | 519 kts | 161° |
| 2026-04-29 18:46 | 25.31795 | -88.52414 | 35000 ft | 519 kts | 161° |
| 2026-04-29 18:47 | 25.24991 | -88.49748 | 35001 ft | 519 kts | 161° |
| 2026-04-29 18:47 | 25.18185 | -88.47086 | 35002 ft | 519 kts | 161° |
| 2026-04-29 18:48 | 25.11385 | -88.44428 | 35002 ft | 518 kts | 161° |
| 2026-04-29 18:48 | 25.04584 | -88.41774 | 35001 ft | 518 kts | 161° |
| 2026-04-29 18:49 | 24.97832 | -88.39142 | 35001 ft | 518 kts | 161° |
| 2026-04-29 18:49 | 24.91038 | -88.36497 | 35005 ft | 518 kts | 161° |
| 2026-04-29 18:50 | 24.84242 | -88.33854 | 35005 ft | 518 kts | 161° |
| 2026-04-29 18:50 | 24.77450 | -88.31215 | 35004 ft | 518 kts | 161° |
| 2026-04-29 18:51 | 24.70655 | -88.28579 | 35005 ft | 518 kts | 161° |
| 2026-04-29 18:51 | 24.63860 | -88.25944 | 35007 ft | 518 kts | 161° |
| 2026-04-29 18:52 | 24.57068 | -88.23314 | 35002 ft | 518 kts | 161° |
| 2026-04-29 18:52 | 24.50275 | -88.20679 | 35004 ft | 518 kts | 160° |
| 2026-04-29 18:53 | 24.43552 | -88.17995 | 35003 ft | 517 kts | 160° |
| 2026-04-29 18:53 | 24.36783 | -88.15303 | 35003 ft | 517 kts | 160° |
| 2026-04-29 18:54 | 24.30018 | -88.12617 | 35003 ft | 517 kts | 160° |
| 2026-04-29 18:54 | 24.23249 | -88.09932 | 35004 ft | 517 kts | 160° |
| 2026-04-29 18:55 | 24.17624 | -88.07702 | 35001 ft | 517 kts | 160° |
| 2026-04-29 18:55 | 24.10864 | -88.05027 | 35003 ft | 517 kts | 160° |
| 2026-04-29 18:56 | 24.04098 | -88.02351 | 35003 ft | 517 kts | 160° |
| 2026-04-29 18:56 | 23.97338 | -87.99681 | 34998 ft | 516 kts | 160° |
| 2026-04-29 18:57 | 23.90579 | -87.97015 | 34999 ft | 516 kts | 160° |
| 2026-04-29 18:57 | 23.83824 | -87.94352 | 34998 ft | 516 kts | 160° |
| 2026-04-29 18:58 | 23.77069 | -87.91693 | 34996 ft | 516 kts | 160° |
| 2026-04-29 18:58 | 23.70318 | -87.89039 | 34996 ft | 516 kts | 160° |
| 2026-04-29 18:59 | 23.63567 | -87.86387 | 34997 ft | 516 kts | 160° |
| 2026-04-29 18:59 | 23.56851 | -87.83789 | 34990 ft | 515 kts | 165° |
| 2026-04-29 19:00 | 23.53337 | -87.83143 | 34983 ft | 511 kts | 180° |
| 2026-04-29 19:00 | 23.49823 | -87.83492 | 34990 ft | 506 kts | 197° |
| 2026-04-29 19:00 | 23.46547 | -87.84805 | 34989 ft | 499 kts | 213° |
| 2026-04-29 19:00 | 23.43727 | -87.86931 | 34987 ft | 490 kts | 227° |
| 2026-04-29 19:01 | 23.41419 | -87.89615 | 34983 ft | 483 kts | 239° |
| 2026-04-29 19:01 | 23.39769 | -87.92742 | 34995 ft | 473 kts | 251° |
| 2026-04-29 19:01 | 23.37168 | -87.99319 | 34987 ft | 473 kts | 253° |
| 2026-04-29 19:02 | 23.34716 | -88.05961 | 34989 ft | 473 kts | 254° |
| 2026-04-29 19:02 | 23.32305 | -88.12619 | 34991 ft | 473 kts | 254° |
| 2026-04-29 19:03 | 23.29899 | -88.19273 | 34989 ft | 473 kts | 254° |
| 2026-04-29 19:03 | 23.27486 | -88.25933 | 34983 ft | 473 kts | 254° |
| 2026-04-29 19:04 | 23.25072 | -88.32590 | 34989 ft | 473 kts | 254° |
| 2026-04-29 19:04 | 23.22670 | -88.39203 | 34987 ft | 473 kts | 254° |
| 2026-04-29 19:05 | 23.20249 | -88.45858 | 34985 ft | 473 kts | 254° |
| 2026-04-29 19:05 | 23.17824 | -88.52514 | 34982 ft | 474 kts | 254° |
| 2026-04-29 19:06 | 23.15397 | -88.59166 | 34983 ft | 474 kts | 254° |
| 2026-04-29 19:06 | 23.12542 | -88.65633 | 34968 ft | 484 kts | 237° |
| 2026-04-29 19:07 | 23.10138 | -88.68237 | 34974 ft | 495 kts | 220° |
| 2026-04-29 19:07 | 23.08146 | -88.69564 | 34974 ft | 501 kts | 208° |
| 2026-04-29 19:07 | 23.03684 | -88.70935 | 34971 ft | 510 kts | 186° |
| 2026-04-29 19:07 | 23.00136 | -88.70801 | 34970 ft | 513 kts | 169° |
| 2026-04-29 19:08 | 22.96743 | -88.69650 | 34970 ft | 512 kts | 152° |
| 2026-04-29 19:08 | 22.93767 | -88.67581 | 34988 ft | 509 kts | 141° |
| 2026-04-29 19:08 | 22.90858 | -88.65370 | 34978 ft | 512 kts | 144° |
| 2026-04-29 19:09 | 22.84969 | -88.61028 | 34977 ft | 512 kts | 143° |
| 2026-04-29 19:09 | 22.79093 | -88.56679 | 34975 ft | 511 kts | 143° |
| 2026-04-29 19:10 | 22.73217 | -88.52343 | 34975 ft | 511 kts | 143° |
| 2026-04-29 19:10 | 22.67346 | -88.48004 | 34973 ft | 510 kts | 141° |
| 2026-04-29 19:11 | 22.62083 | -88.42930 | 34969 ft | 507 kts | 134° |
| 2026-04-29 19:11 | 22.56898 | -88.37759 | 34972 ft | 507 kts | 134° |
| 2026-04-29 19:12 | 22.51757 | -88.32626 | 34970 ft | 506 kts | 134° |
| 2026-04-29 19:12 | 22.49167 | -88.30043 | 34743 ft | 506 kts | 134° |
| 2026-04-29 19:12 | 22.46590 | -88.27472 | 34129 ft | 503 kts | 134° |
| 2026-04-29 19:12 | 22.44858 | -88.25746 | 33688 ft | 502 kts | 134° |
| 2026-04-29 19:13 | 22.41462 | -88.22364 | 32784 ft | 499 kts | 134° |
| 2026-04-29 19:13 | 22.38918 | -88.19831 | 32112 ft | 494 kts | 134° |
| 2026-04-29 19:13 | 22.36400 | -88.17326 | 31381 ft | 490 kts | 134° |
| 2026-04-29 19:13 | 22.33902 | -88.14841 | 30622 ft | 486 kts | 134° |
| 2026-04-29 19:14 | 22.31423 | -88.12377 | 29865 ft | 483 kts | 134° |
| 2026-04-29 19:14 | 22.28940 | -88.09911 | 28999 ft | 486 kts | 134° |
| 2026-04-29 19:14 | 22.26448 | -88.07435 | 28155 ft | 488 kts | 135° |
| 2026-04-29 19:14 | 22.23947 | -88.04953 | 27330 ft | 489 kts | 135° |
| 2026-04-29 19:15 | 22.21439 | -88.02465 | 26539 ft | 490 kts | 135° |
| 2026-04-29 19:15 | 22.18925 | -87.99972 | 25775 ft | 492 kts | 135° |
| 2026-04-29 19:15 | 22.16405 | -87.97475 | 25019 ft | 492 kts | 135° |
| 2026-04-29 19:15 | 22.13892 | -87.94985 | 24297 ft | 489 kts | 135° |
| 2026-04-29 19:16 | 22.11401 | -87.92519 | 23609 ft | 483 kts | 135° |
| 2026-04-29 19:16 | 22.08946 | -87.90089 | 22803 ft | 474 kts | 135° |
| 2026-04-29 19:16 | 22.06547 | -87.87715 | 22014 ft | 462 kts | 135° |
| 2026-04-29 19:16 | 22.04206 | -87.85400 | 21254 ft | 451 kts | 135° |
| 2026-04-29 19:17 | 22.01920 | -87.83141 | 20513 ft | 440 kts | 135° |
| 2026-04-29 19:17 | 21.99686 | -87.80933 | 19793 ft | 431 kts | 135° |
| 2026-04-29 19:17 | 21.97503 | -87.78777 | 19092 ft | 421 kts | 135° |
| 2026-04-29 19:17 | 21.95367 | -87.76669 | 18419 ft | 413 kts | 135° |
| 2026-04-29 19:18 | 21.93272 | -87.74602 | 17668 ft | 404 kts | 135° |
| 2026-04-29 19:18 | 21.91908 | -87.73255 | 17167 ft | 399 kts | 135° |
| 2026-04-29 19:18 | 21.89227 | -87.70611 | 16186 ft | 390 kts | 135° |
| 2026-04-29 19:18 | 21.87240 | -87.68653 | 15471 ft | 384 kts | 134° |
| 2026-04-29 19:19 | 21.85288 | -87.66731 | 14768 ft | 378 kts | 134° |
| 2026-04-29 19:19 | 21.83362 | -87.64835 | 14084 ft | 372 kts | 134° |
| 2026-04-29 19:19 | 21.81473 | -87.62977 | 13552 ft | 362 kts | 134° |
| 2026-04-29 19:19 | 21.79643 | -87.61178 | 13088 ft | 350 kts | 134° |
| 2026-04-29 19:20 | 21.77884 | -87.59447 | 12740 ft | 336 kts | 134° |
| 2026-04-29 19:20 | 21.76193 | -87.57786 | 12388 ft | 323 kts | 134° |
| 2026-04-29 19:20 | 21.74561 | -87.56182 | 12040 ft | 312 kts | 134° |
| 2026-04-29 19:20 | 21.72986 | -87.54634 | 11694 ft | 302 kts | 134° |
| 2026-04-29 19:21 | 21.71462 | -87.53137 | 11350 ft | 292 kts | 134° |
| 2026-04-29 19:21 | 21.69981 | -87.51683 | 11010 ft | 284 kts | 134° |
| 2026-04-29 19:21 | 21.68542 | -87.50271 | 10675 ft | 276 kts | 134° |
| 2026-04-29 19:21 | 21.67142 | -87.48897 | 10337 ft | 269 kts | 134° |
| 2026-04-29 19:22 | 21.65775 | -87.47556 | 10004 ft | 263 kts | 134° |
| 2026-04-29 19:22 | 21.64446 | -87.46259 | 9705 ft | 254 kts | 136° |
| 2026-04-29 19:22 | 21.63084 | -87.45089 | 9371 ft | 247 kts | 138° |
| 2026-04-29 19:22 | 21.61745 | -87.43953 | 9002 ft | 243 kts | 138° |
| 2026-04-29 19:23 | 21.60431 | -87.42831 | 8642 ft | 239 kts | 138° |
| 2026-04-29 19:23 | 21.59140 | -87.41726 | 8287 ft | 235 kts | 138° |
| 2026-04-29 19:23 | 21.57870 | -87.40638 | 7935 ft | 232 kts | 139° |
| 2026-04-29 19:23 | 21.56619 | -87.39562 | 7588 ft | 229 kts | 139° |
| 2026-04-29 19:24 | 21.55400 | -87.38515 | 7242 ft | 226 kts | 140° |
| 2026-04-29 19:24 | 21.54180 | -87.37468 | 6902 ft | 223 kts | 140° |
| 2026-04-29 19:24 | 21.52974 | -87.36433 | 6589 ft | 221 kts | 141° |
| 2026-04-29 19:24 | 21.51777 | -87.35403 | 6240 ft | 220 kts | 141° |
| 2026-04-29 19:25 | 21.50604 | -87.34397 | 5881 ft | 212 kts | 141° |
| 2026-04-29 19:25 | 21.49469 | -87.33424 | 5542 ft | 205 kts | 142° |
| 2026-04-29 19:25 | 21.48369 | -87.32480 | 5188 ft | 200 kts | 141° |
| 2026-04-29 19:25 | 21.47301 | -87.31562 | 4861 ft | 194 kts | 142° |
| 2026-04-29 19:26 | 21.46261 | -87.30672 | 4517 ft | 189 kts | 142° |
| 2026-04-29 19:26 | 21.45246 | -87.29800 | 4169 ft | 185 kts | 141° |
| 2026-04-29 19:26 | 21.44255 | -87.28951 | 3898 ft | 180 kts | 142° |
| 2026-04-29 19:26 | 21.43279 | -87.28116 | 3845 ft | 179 kts | 142° |
| 2026-04-29 19:27 | 21.42305 | -87.27280 | 3880 ft | 180 kts | 141° |
| 2026-04-29 19:27 | 21.41332 | -87.26447 | 3824 ft | 178 kts | 141° |
| 2026-04-29 19:27 | 21.40358 | -87.25612 | 3858 ft | 180 kts | 142° |
| 2026-04-29 19:27 | 21.39375 | -87.24771 | 3906 ft | 181 kts | 142° |
| 2026-04-29 19:28 | 21.38393 | -87.23932 | 3875 ft | 180 kts | 142° |
| 2026-04-29 19:28 | 21.37334 | -87.23242 | 3822 ft | 178 kts | 152° |
| 2026-04-29 19:28 | 21.36223 | -87.22642 | 3849 ft | 179 kts | 153° |
| 2026-04-29 19:28 | 21.35104 | -87.22037 | 3943 ft | 181 kts | 152° |
| 2026-04-29 19:29 | 21.33995 | -87.21436 | 3859 ft | 181 kts | 152° |
| 2026-04-29 19:29 | 21.32874 | -87.20829 | 3868 ft | 181 kts | 152° |
| 2026-04-29 19:29 | 21.31749 | -87.20219 | 3834 ft | 181 kts | 152° |
| 2026-04-29 19:29 | 21.30631 | -87.19614 | 3896 ft | 180 kts | 151° |
| 2026-04-29 19:30 | 21.29580 | -87.18902 | 3769 ft | 179 kts | 137° |
| 2026-04-29 19:30 | 21.28678 | -87.17988 | 3672 ft | 178 kts | 136° |
| 2026-04-29 19:30 | 21.27782 | -87.17065 | 3570 ft | 180 kts | 136° |
| 2026-04-29 19:30 | 21.26881 | -87.16132 | 3496 ft | 180 kts | 136° |
| 2026-04-29 19:31 | 21.25987 | -87.15204 | 3405 ft | 178 kts | 136° |
| 2026-04-29 19:31 | 21.25097 | -87.14280 | 3286 ft | 178 kts | 136° |
| 2026-04-29 19:31 | 21.24210 | -87.13359 | 3174 ft | 177 kts | 136° |
| 2026-04-29 19:31 | 21.23332 | -87.12445 | 3035 ft | 175 kts | 136° |
| 2026-04-29 19:32 | 21.22459 | -87.11535 | 2930 ft | 175 kts | 136° |
| 2026-04-29 19:32 | 21.21587 | -87.10626 | 2810 ft | 175 kts | 135° |
| 2026-04-29 19:32 | 21.20713 | -87.09718 | 2700 ft | 176 kts | 134° |
| 2026-04-29 19:32 | 21.19836 | -87.08805 | 2654 ft | 175 kts | 134° |
| 2026-04-29 19:33 | 21.18961 | -87.07894 | 2531 ft | 176 kts | 134° |
| 2026-04-29 19:33 | 21.18095 | -87.06994 | 2380 ft | 176 kts | 134° |
| 2026-04-29 19:33 | 21.17213 | -87.06075 | 2306 ft | 177 kts | 135° |
| 2026-04-29 19:33 | 21.16340 | -87.05166 | 2198 ft | 174 kts | 136° |
| 2026-04-29 19:34 | 21.15506 | -87.04299 | 2049 ft | 156 kts | 135° |
| 2026-04-29 19:34 | 21.14750 | -87.03510 | 2080 ft | 150 kts | 134° |
| 2026-04-29 19:34 | 21.13998 | -87.02730 | 2077 ft | 150 kts | 134° |
| 2026-04-29 19:34 | 21.13258 | -87.01960 | 2022 ft | 147 kts | 133° |
| 2026-04-29 19:35 | 21.12529 | -87.01203 | 1991 ft | 146 kts | 133° |
| 2026-04-29 19:35 | 21.11803 | -87.00448 | 1869 ft | 145 kts | 133° |
| 2026-04-29 19:35 | 21.11142 | -86.99644 | 1752 ft | 144 kts | 123° |
| 2026-04-29 19:35 | 21.10602 | -86.98743 | 1665 ft | 144 kts | 122° |
| 2026-04-29 19:36 | 21.10043 | -86.97856 | 1562 ft | 143 kts | 123° |
| 2026-04-29 19:36 | 21.09481 | -86.96967 | 1474 ft | 145 kts | 125° |
| 2026-04-29 19:36 | 21.08912 | -86.96077 | 1369 ft | 145 kts | 125° |
| 2026-04-29 19:36 | 21.08337 | -86.95184 | 1329 ft | 145 kts | 125° |
| 2026-04-29 19:37 | 21.07774 | -86.94277 | 1324 ft | 147 kts | 124° |
| 2026-04-29 19:37 | 21.07408 | -86.93664 | 1201 ft | 147 kts | 123° |
| 2026-04-29 19:37 | 21.06660 | -86.92440 | 961 ft | 146 kts | 125° |
| 2026-04-29 19:37 | 21.06096 | -86.91533 | 642 ft | 147 kts | 126° |
| 2026-04-29 19:38 | 21.05513 | -86.90634 | 380 ft | 148 kts | 126° |
| 2026-04-29 19:38 | 21.04935 | -86.89714 | 231 ft | 150 kts | 126° |
| 2026-04-29 19:38 | 21.04357 | -86.88805 | 42 ft | 146 kts | 127° |
| 2026-04-29 19:38 | 21.03913 | -86.88103 | 30 ft | 77 kts | 123° |
| 2026-04-29 19:39 | 21.03729 | -86.87805 | 32 ft | 20 kts | 123° |
| 2026-04-29 19:39 | 21.03698 | -86.87754 | 32 ft | 11 kts | 123° |
| 2026-04-29 19:39 | 21.03638 | -86.87645 | 32 ft | 17 kts | 108° |
| 2026-04-29 19:39 | 21.03607 | -86.87508 | 33 ft | 17 kts | 94° |
| 2026-04-29 19:40 | 21.03595 | -86.87358 | 31 ft | 22 kts | 99° |
| 2026-04-29 19:40 | 21.03530 | -86.87183 | 30 ft | 15 kts | 123° |
| 2026-04-29 19:40 | 21.03542 | -86.87113 | 30 ft | 9 kts | 23° |
| 2026-04-29 19:40 | 21.03616 | -86.87156 | 30 ft | 7 kts | 358° |
| 2026-04-29 19:41 | 21.03662 | -86.87122 | 30 ft | 2 kts | 31° |
| 2026-04-29 19:41 | 21.03675 | -86.87114 | 30 ft | 1 kts | 31° |